Time;durP1;ratioP1;P1;durP2;ratioP2;P2;SDS_P1;SDS_P2;PMS_P1;PMS_P2;Temp;Humidity;BMP_temperature;BMP_pressure;BME280_temperature;BME280_humidity;BME280_pressure;Samples;Min_cycle;Max_cycle;Signal;HPM_P1;HPM_P2
2024/01/22 00:02:02;;;;;;;14.23;9.13;;;0.70;13.40;;;;;;5007306;28;20480;-68
2024/01/22 00:04:29;;;;;;;13.03;8.43;;;0.70;13.40;;;;;;5010406;28;21005;-68
2024/01/22 00:06:56;;;;;;;11.33;6.87;;;0.70;13.40;;;;;;5011163;28;20486;-68
2024/01/22 00:09:24;;;;;;;15.03;8.90;;;0.70;13.40;;;;;;5005499;28;20480;-68
2024/01/22 00:11:51;;;;;;;9.87;6.40;;;0.70;13.40;;;;;;5008758;28;20559;-68
2024/01/22 00:14:17;;;;;;;13.43;8.20;;;0.70;13.40;;;;;;5016976;28;20468;-68
2024/01/22 00:16:44;;;;;;;11.00;7.30;;;0.70;13.40;;;;;;5008729;28;20506;-68
2024/01/22 00:19:11;;;;;;;13.47;8.37;;;0.70;13.40;;;;;;5010444;28;20464;-68
2024/01/22 00:21:41;;;;;;;11.80;8.10;;;0.70;13.40;;;;;;5008322;28;20470;-68
2024/01/22 00:24:08;;;;;;;11.50;7.70;;;0.70;13.50;;;;;;5011285;28;20464;-69
2024/01/22 00:26:37;;;;;;;12.63;8.17;;;0.70;13.50;;;;;;5012740;28;21167;-69
2024/01/22 00:29:04;;;;;;;12.90;7.90;;;0.70;13.50;;;;;;5007387;28;20501;-68
2024/01/22 00:31:30;;;;;;;15.77;8.40;;;0.70;13.60;;;;;;5008787;28;20483;-69
2024/01/22 00:33:57;;;;;;;14.97;8.60;;;0.70;13.50;;;;;;5008817;28;20825;-69
2024/01/22 00:36:24;;;;;;;11.10;7.20;;;0.70;13.50;;;;;;5013962;28;20479;-68
2024/01/22 00:38:50;;;;;;;13.43;7.77;;;0.70;13.50;;;;;;5009097;28;20472;-67
2024/01/22 00:41:17;;;;;;;10.10;7.30;;;0.70;13.40;;;;;;5008117;28;20467;-67
2024/01/22 00:43:45;;;;;;;10.63;6.37;;;0.70;13.40;;;;;;5005820;28;20465;-67
2024/01/22 00:46:13;;;;;;;13.87;7.30;;;0.70;13.40;;;;;;5004765;28;20478;-67
2024/01/22 00:48:39;;;;;;;11.77;7.30;;;0.70;13.40;;;;;;5002792;28;20460;-67
2024/01/22 00:51:06;;;;;;;13.87;8.07;;;0.70;13.40;;;;;;5008784;28;20464;-68
2024/01/22 00:53:33;;;;;;;12.57;7.60;;;0.70;13.30;;;;;;5008754;28;20459;-68
2024/01/22 00:56:00;;;;;;;13.20;7.00;;;0.70;13.20;;;;;;5008570;28;20542;-68
2024/01/22 00:58:27;;;;;;;12.20;7.63;;;0.70;13.20;;;;;;5007548;28;20889;-67
2024/01/22 01:00:55;;;;;;;12.10;7.67;;;0.70;13.20;;;;;;5007794;28;21011;-67
2024/01/22 01:03:22;;;;;;;11.57;7.20;;;0.70;13.30;;;;;;5008432;28;20952;-67
2024/01/22 01:05:49;;;;;;;9.60;6.93;;;0.70;13.20;;;;;;5007633;28;20470;-68
2024/01/22 01:08:16;;;;;;;12.90;6.30;;;0.70;13.20;;;;;;5004862;28;20526;-67
2024/01/22 01:10:43;;;;;;;11.57;7.10;;;0.70;13.10;;;;;;5007340;28;20855;-68
2024/01/22 01:13:10;;;;;;;12.00;7.10;;;0.70;13.00;;;;;;5008233;28;20550;-68
2024/01/22 01:15:36;;;;;;;10.23;6.53;;;0.70;13.00;;;;;;5008517;28;20456;-68
2024/01/22 01:18:05;;;;;;;11.00;6.80;;;0.70;13.00;;;;;;5008360;28;20571;-68
2024/01/22 01:20:33;;;;;;;10.40;6.03;;;0.70;13.20;;;;;;5013809;28;20651;-68
2024/01/22 01:23:00;;;;;;;9.80;6.10;;;0.70;12.90;;;;;;5011072;28;20490;-68
2024/01/22 01:25:27;;;;;;;8.97;5.50;;;0.70;12.90;;;;;;5010217;28;20826;-68
2024/01/22 01:27:54;;;;;;;8.17;4.97;;;0.70;12.90;;;;;;5008130;28;20907;-68
2024/01/22 01:30:21;;;;;;;15.80;6.60;;;0.70;12.90;;;;;;5010333;28;20476;-68
2024/01/22 01:32:47;;;;;;;8.90;5.23;;;0.70;12.80;;;;;;5010138;28;20455;-68
2024/01/22 01:35:16;;;;;;;10.07;5.40;;;0.70;12.80;;;;;;5013995;28;20556;-68
2024/01/22 01:37:42;;;;;;;9.67;5.20;;;0.60;12.70;;;;;;5006402;28;20489;-68
2024/01/22 01:40:10;;;;;;;10.93;5.90;;;0.60;12.60;;;;;;5008929;28;20455;-68
2024/01/22 01:42:37;;;;;;;11.30;5.13;;;0.60;12.60;;;;;;5007947;28;20460;-68
2024/01/22 01:45:04;;;;;;;7.13;4.33;;;0.60;12.60;;;;;;5002731;28;20551;-68
2024/01/22 01:47:31;;;;;;;7.90;4.80;;;0.60;12.70;;;;;;5008580;28;20486;-68
2024/01/22 01:49:58;;;;;;;9.83;3.80;;;0.60;12.60;;;;;;5007065;28;20479;-68
2024/01/22 01:52:26;;;;;;;9.00;4.50;;;0.60;12.60;;;;;;5005904;28;20466;-68
2024/01/22 01:54:53;;;;;;;7.37;4.67;;;0.60;12.60;;;;;;5008224;28;20949;-68
2024/01/22 01:57:22;;;;;;;7.43;4.80;;;0.60;12.60;;;;;;5010218;28;20479;-68
2024/01/22 01:59:49;;;;;;;6.80;4.00;;;0.60;12.40;;;;;;5001010;28;20464;-68
2024/01/22 02:02:16;;;;;;;7.30;4.60;;;0.60;12.20;;;;;;5047515;23;21045;-68
2024/01/22 02:04:43;;;;;;;9.20;4.60;;;0.60;12.10;;;;;;5048340;28;20459;-68
2024/01/22 02:07:10;;;;;;;7.40;4.50;;;0.50;12.00;;;;;;5035631;28;20482;-68
2024/01/22 02:09:48;;;;;;;9.40;4.80;;;0.50;11.90;;;;;;5029232;28;20577;-68
2024/01/22 02:12:16;;;;;;;7.97;3.90;;;0.50;12.00;;;;;;5021591;28;20538;-68
2024/01/22 02:14:43;;;;;;;7.77;3.67;;;0.50;12.10;;;;;;5027161;28;20463;-68
2024/01/22 02:17:10;;;;;;;7.47;3.30;;;0.50;12.30;;;;;;5030419;28;20493;-68
2024/01/22 02:19:37;;;;;;;7.47;3.73;;;0.50;12.40;;;;;;5031616;28;20457;-68
2024/01/22 02:22:04;;;;;;;7.90;4.53;;;0.50;12.40;;;;;;5030744;28;20461;-68
2024/01/22 02:24:32;;;;;;;7.30;3.87;;;0.50;12.50;;;;;;5022768;28;20550;-68
2024/01/22 02:26:59;;;;;;;7.27;4.07;;;0.50;12.60;;;;;;5026368;28;20488;-67
2024/01/22 02:29:25;;;;;;;8.10;4.10;;;0.50;12.70;;;;;;5027990;28;20494;-67
2024/01/22 02:31:53;;;;;;;7.83;4.00;;;0.50;12.70;;;;;;5026646;28;20479;-67
2024/01/22 02:34:20;;;;;;;8.97;3.63;;;0.50;12.80;;;;;;5023065;28;20551;-67
2024/01/22 02:36:47;;;;;;;8.27;4.17;;;0.50;12.90;;;;;;5024536;28;20986;-67
2024/01/22 02:39:13;;;;;;;7.50;3.60;;;0.50;13.00;;;;;;5026721;28;21159;-67
2024/01/22 02:41:42;;;;;;;10.60;3.80;;;0.50;13.10;;;;;;5024406;28;20467;-67
2024/01/22 02:44:09;;;;;;;7.90;4.40;;;0.60;13.10;;;;;;5024830;28;20459;-67
2024/01/22 02:46:36;;;;;;;6.57;3.80;;;0.60;13.20;;;;;;5025457;28;20515;-67
2024/01/22 02:49:02;;;;;;;7.73;3.70;;;0.60;13.30;;;;;;5026505;28;20486;-67
2024/01/22 02:51:29;;;;;;;5.90;3.30;;;0.60;13.40;;;;;;5027703;28;20482;-67
2024/01/22 02:53:56;;;;;;;7.67;4.20;;;0.70;13.60;;;;;;5029074;28;20553;-67
2024/01/22 02:56:24;;;;;;;6.70;4.20;;;0.70;13.80;;;;;;5030392;28;20471;-67
2024/01/22 02:58:52;;;;;;;6.97;3.77;;;0.70;13.80;;;;;;5028862;28;20554;-67
2024/01/22 03:01:19;;;;;;;9.60;3.87;;;0.70;14.00;;;;;;5029802;28;20840;-67
2024/01/22 03:03:46;;;;;;;8.37;4.00;;;0.70;14.00;;;;;;5029013;28;21283;-67
2024/01/22 03:06:13;;;;;;;6.60;3.60;;;0.70;14.00;;;;;;5029849;28;20463;-67
2024/01/22 03:08:39;;;;;;;7.30;3.37;;;0.80;13.80;;;;;;5029181;28;20462;-67
2024/01/22 03:11:07;;;;;;;7.80;3.67;;;0.90;13.80;;;;;;5028808;28;20842;-67
2024/01/22 03:13:34;;;;;;;7.10;3.90;;;0.90;13.70;;;;;;5030393;28;20612;-67
2024/01/22 03:16:02;;;;;;;8.73;4.00;;;1.00;13.40;;;;;;5033483;28;20574;-67
2024/01/22 03:18:29;;;;;;;8.73;3.80;;;1.00;13.10;;;;;;5028854;28;20571;-67
2024/01/22 03:20:55;;;;;;;7.73;3.63;;;1.10;13.10;;;;;;5030295;28;20842;-67
2024/01/22 03:23:22;;;;;;;8.73;4.00;;;1.10;13.40;;;;;;5033770;28;20458;-68
2024/01/22 03:25:49;;;;;;;9.40;3.60;;;1.10;12.90;;;;;;5031671;28;20471;-67
2024/01/22 03:28:16;;;;;;;7.00;3.40;;;1.10;12.80;;;;;;5028586;28;20487;-67
2024/01/22 03:30:42;;;;;;;6.33;3.43;;;1.10;12.80;;;;;;5026430;28;20463;-68
2024/01/22 03:33:11;;;;;;;7.70;3.83;;;1.20;12.70;;;;;;5031980;28;20840;-67
2024/01/22 03:35:37;;;;;;;8.00;3.90;;;1.20;12.70;;;;;;5029487;28;20459;-67
2024/01/22 03:38:04;;;;;;;6.43;3.93;;;1.20;12.60;;;;;;5027849;28;20845;-67
2024/01/22 03:40:31;;;;;;;8.50;3.37;;;1.20;12.60;;;;;;5031920;28;20464;-67
2024/01/22 03:42:58;;;;;;;9.13;4.10;;;1.20;12.70;;;;;;5030725;28;20499;-68
2024/01/22 03:45:25;;;;;;;7.30;3.50;;;1.20;12.70;;;;;;5030010;28;20513;-67
2024/01/22 03:47:51;;;;;;;8.53;4.40;;;1.20;12.70;;;;;;5026397;28;20479;-68
2024/01/22 03:50:19;;;;;;;9.00;4.00;;;1.20;12.70;;;;;;5029493;28;20483;-68
2024/01/22 03:52:46;;;;;;;6.90;3.87;;;1.20;12.60;;;;;;5030763;28;20462;-68
2024/01/22 03:55:13;;;;;;;9.53;4.17;;;1.10;12.60;;;;;;5029956;28;20541;-68
2024/01/22 03:57:40;;;;;;;6.57;4.07;;;1.10;12.50;;;;;;5030806;28;20560;-67
2024/01/22 04:00:08;;;;;;;9.47;4.20;;;1.10;12.50;;;;;;5030799;28;20550;-68
2024/01/22 04:02:35;;;;;;;8.00;4.27;;;1.10;12.50;;;;;;5028972;28;20475;-67
2024/01/22 04:05:01;;;;;;;7.27;4.40;;;1.10;12.50;;;;;;5025978;28;20502;-67
2024/01/22 04:07:30;;;;;;;8.40;4.83;;;1.10;12.60;;;;;;5029311;28;20478;-67
2024/01/22 04:09:56;;;;;;;9.07;5.00;;;1.10;12.80;;;;;;5028395;28;20459;-69
2024/01/22 04:12:23;;;;;;;69.17;9.47;;;1.10;12.80;;;;;;5033375;28;20470;-67
2024/01/22 04:14:50;;;;;;;7.83;4.33;;;1.20;13.40;;;;;;5026502;28;20471;-67
2024/01/22 04:17:17;;;;;;;9.07;5.30;;;1.30;13.30;;;;;;5026286;28;20597;-67
2024/01/22 04:19:43;;;;;;;7.43;4.30;;;1.30;12.80;;;;;;5022972;28;20522;-67
2024/01/22 04:22:10;;;;;;;10.07;5.70;;;1.30;12.50;;;;;;5027090;28;20467;-67
2024/01/22 04:24:39;;;;;;;9.57;4.17;;;1.30;12.30;;;;;;5027289;28;20459;-67
2024/01/22 04:27:05;;;;;;;9.40;4.87;;;1.30;11.90;;;;;;5026296;28;20483;-67
2024/01/22 04:29:35;;;;;;;9.00;4.90;;;1.40;11.80;;;;;;5025934;28;20466;-67
2024/01/22 04:32:02;;;;;;;7.17;3.73;;;1.40;12.20;;;;;;5028743;28;20475;-67
2024/01/22 04:34:29;;;;;;;5.87;3.60;;;1.40;11.30;;;;;;5024888;28;20971;-67
2024/01/22 04:36:56;;;;;;;7.13;4.17;;;1.50;11.20;;;;;;5027936;28;20502;-67
2024/01/22 04:39:24;;;;;;;7.00;3.80;;;1.50;11.20;;;;;;5027649;28;20462;-67
2024/01/22 04:41:53;;;;;;;8.47;6.03;;;1.50;11.10;;;;;;5026348;28;20463;-67
2024/01/22 04:44:20;;;;;;;15.13;4.90;;;1.60;11.10;;;;;;5025886;28;20454;-67
2024/01/22 04:46:47;;;;;;;10.10;5.50;;;1.60;11.00;;;;;;5027212;28;20866;-67
2024/01/22 04:49:14;;;;;;;11.17;4.53;;;1.70;10.80;;;;;;5027625;28;20467;-67
2024/01/22 04:51:42;;;;;;;8.63;4.83;;;1.70;10.70;;;;;;5028613;28;20822;-67
2024/01/22 04:54:09;;;;;;;7.80;4.50;;;1.80;10.40;;;;;;5025305;28;20459;-67
2024/01/22 04:56:40;;;;;;;9.90;4.67;;;1.80;10.50;;;;;;5028342;28;20570;-67
2024/01/22 04:59:08;;;;;;;8.73;4.43;;;1.90;10.00;;;;;;5027666;28;20455;-67
2024/01/22 05:01:35;;;;;;;8.23;4.73;;;1.90;10.10;;;;;;5029649;28;20481;-67
2024/01/22 05:04:02;;;;;;;7.90;4.50;;;2.00;9.80;;;;;;5032728;28;20504;-68
2024/01/22 05:06:29;;;;;;;7.53;3.80;;;2.00;9.60;;;;;;5030376;28;20463;-67
2024/01/22 05:08:56;;;;;;;9.43;4.57;;;2.00;9.70;;;;;;5027309;28;20466;-67
2024/01/22 05:11:23;;;;;;;10.10;5.17;;;2.10;9.80;;;;;;5028154;28;20565;-67
2024/01/22 05:13:51;;;;;;;10.80;5.00;;;2.10;9.80;;;;;;5028433;28;20493;-70
2024/01/22 05:16:20;;;;;;;12.00;5.93;;;2.10;10.00;;;;;;5027947;28;20463;-67
2024/01/22 05:18:48;;;;;;;14.53;7.43;;;2.20;10.20;;;;;;5031696;28;20470;-67
2024/01/22 05:21:15;;;;;;;11.23;6.70;;;2.20;10.20;;;;;;5032009;28;20473;-67
2024/01/22 05:23:42;;;;;;;9.53;6.00;;;2.20;10.30;;;;;;5029028;28;20465;-67
2024/01/22 05:26:09;;;;;;;10.43;6.47;;;2.30;10.40;;;;;;5029033;28;20468;-67
2024/01/22 05:28:36;;;;;;;9.87;5.83;;;2.30;10.50;;;;;;5024847;28;20558;-67
2024/01/22 05:31:04;;;;;;;9.17;5.80;;;2.30;10.60;;;;;;5025527;28;20485;-68
2024/01/22 05:33:32;;;;;;;12.10;6.03;;;2.30;10.70;;;;;;5029171;28;20470;-67
2024/01/22 05:35:59;;;;;;;9.20;5.87;;;2.30;10.70;;;;;;5026983;28;20463;-67
2024/01/22 05:38:26;;;;;;;11.63;7.30;;;2.40;10.60;;;;;;5028873;28;20482;-67
2024/01/22 05:40:53;;;;;;;11.00;7.20;;;2.40;10.50;;;;;;5027711;28;20505;-67
2024/01/22 05:43:20;;;;;;;10.10;6.10;;;2.40;10.60;;;;;;5031194;28;20837;-67
2024/01/22 05:45:46;;;;;;;9.80;6.30;;;2.40;10.60;;;;;;5025539;28;20463;-67
2024/01/22 05:48:13;;;;;;;12.00;6.70;;;2.40;10.70;;;;;;5023840;28;20494;-67
2024/01/22 05:50:42;;;;;;;10.30;7.10;;;2.40;10.70;;;;;;5025870;28;20489;-67
2024/01/22 05:53:08;;;;;;;11.43;7.10;;;2.40;10.90;;;;;;5027938;28;20969;-68
2024/01/22 05:55:36;;;;;;;11.67;7.70;;;2.40;10.90;;;;;;5028948;28;20461;-68
2024/01/22 05:58:04;;;;;;;10.83;5.70;;;2.40;10.90;;;;;;5028612;28;20569;-68
2024/01/22 06:00:30;;;;;;;9.23;6.17;;;2.50;10.80;;;;;;5030573;28;20461;-67
2024/01/22 06:03:00;;;;;;;9.30;6.23;;;2.50;10.70;;;;;;5028021;28;20537;-67
2024/01/22 06:05:27;;;;;;;10.53;6.60;;;2.50;10.70;;;;;;5024829;28;20469;-68
2024/01/22 06:07:55;;;;;;;10.70;6.67;;;2.50;10.70;;;;;;5028710;28;20487;-68
2024/01/22 06:10:22;;;;;;;10.93;6.03;;;2.50;10.60;;;;;;5025727;28;20675;-68
2024/01/22 06:12:48;;;;;;;13.10;7.50;;;2.60;10.50;;;;;;5028038;28;20547;-67
2024/01/22 06:15:15;;;;;;;10.17;6.60;;;2.50;10.40;;;;;;5026537;28;20467;-68
2024/01/22 06:17:42;;;;;;;10.13;6.57;;;2.60;10.50;;;;;;5026003;28;20580;-68
2024/01/22 06:20:10;;;;;;;10.37;7.03;;;2.60;10.40;;;;;;5032102;28;20457;-68
2024/01/22 06:22:38;;;;;;;9.30;6.07;;;2.60;10.30;;;;;;5030207;28;20531;-68
2024/01/22 06:25:07;;;;;;;10.27;6.00;;;2.60;10.40;;;;;;5027692;28;20540;-68
2024/01/22 06:27:33;;;;;;;10.30;6.60;;;2.60;10.40;;;;;;5026821;28;21250;-68
2024/01/22 06:30:01;;;;;;;10.33;6.47;;;2.60;10.50;;;;;;5037726;28;20558;-68
2024/01/22 06:32:28;;;;;;;14.57;7.33;;;2.60;10.50;;;;;;5036004;28;20540;-68
2024/01/22 06:34:55;;;;;;;11.20;6.60;;;2.70;10.70;;;;;;5034228;28;20929;-68
2024/01/22 06:37:24;;;;;;;11.63;7.00;;;2.70;10.60;;;;;;5037369;28;20513;-68
2024/01/22 06:39:51;;;;;;;9.93;6.50;;;2.70;10.60;;;;;;5039110;28;20458;-68
2024/01/22 06:42:19;;;;;;;11.97;7.07;;;2.70;10.50;;;;;;5037805;28;20481;-68
2024/01/22 06:44:46;;;;;;;10.67;6.63;;;2.80;10.40;;;;;;5039098;28;20557;-68
2024/01/22 06:47:13;;;;;;;12.77;6.70;;;2.80;10.50;;;;;;5039458;28;20543;-70
2024/01/22 06:49:39;;;;;;;10.30;6.20;;;2.80;10.50;;;;;;5038030;28;20463;-68
2024/01/22 06:52:06;;;;;;;10.40;6.50;;;2.80;10.50;;;;;;5028115;28;20471;-67
2024/01/22 06:54:33;;;;;;;10.70;6.60;;;2.90;10.60;;;;;;5031811;28;20471;-68
2024/01/22 06:57:00;;;;;;;11.07;7.20;;;2.90;10.60;;;;;;5032644;28;20934;-68
2024/01/22 06:59:30;;;;;;;14.50;6.50;;;3.00;10.60;;;;;;5033841;28;20457;-68
2024/01/22 07:01:58;;;;;;;13.50;7.50;;;3.00;10.40;;;;;;5030253;28;20466;-68
2024/01/22 07:04:25;;;;;;;9.93;6.10;;;3.00;10.40;;;;;;5030401;28;20486;-68
2024/01/22 07:06:52;;;;;;;9.50;6.67;;;3.00;10.50;;;;;;5030321;28;20483;-67
2024/01/22 07:09:19;;;;;;;11.70;6.53;;;3.00;10.40;;;;;;5028613;28;20466;-68
2024/01/22 07:11:46;;;;;;;10.30;5.87;;;3.00;10.20;;;;;;5031213;28;20510;-67
2024/01/22 07:14:13;;;;;;;9.73;6.17;;;3.00;10.10;;;;;;5032323;28;20596;-68
2024/01/22 07:16:41;;;;;;;8.00;4.80;;;3.10;10.10;;;;;;5031433;28;20540;-68
2024/01/22 07:19:08;;;;;;;9.10;5.50;;;3.10;9.80;;;;;;5029072;28;20450;-68
2024/01/22 07:21:35;;;;;;;9.00;4.90;;;3.10;9.50;;;;;;5030609;28;21241;-68
2024/01/22 07:24:02;;;;;;;10.77;5.60;;;3.20;9.30;;;;;;5031297;28;20453;-67
2024/01/22 07:26:29;;;;;;;7.57;4.53;;;3.20;8.70;;;;;;5028899;28;20459;-68
2024/01/22 07:28:55;;;;;;;9.10;4.47;;;3.30;8.80;;;;;;5031505;28;20459;-67
2024/01/22 07:31:22;;;;;;;9.53;5.20;;;3.30;8.30;;;;;;5032277;28;20479;-67
2024/01/22 07:33:50;;;;;;;7.73;4.43;;;3.30;8.50;;;;;;5027069;28;20459;-68
2024/01/22 07:36:17;;;;;;;7.40;4.37;;;3.40;8.60;;;;;;5030694;28;20469;-68
2024/01/22 07:38:45;;;;;;;7.27;4.10;;;3.40;8.70;;;;;;5029030;28;20954;-68
2024/01/22 07:41:12;;;;;;;8.50;4.30;;;3.40;8.80;;;;;;5034424;28;20447;-68
2024/01/22 07:43:38;;;;;;;13.43;4.40;;;3.50;8.90;;;;;;5031708;28;20472;-68
2024/01/22 07:46:05;;;;;;;6.17;3.90;;;3.50;8.90;;;;;;5033551;28;20477;-68
2024/01/22 07:48:32;;;;;;;6.83;4.17;;;3.50;8.80;;;;;;5028933;28;20482;-68
2024/01/22 07:51:00;;;;;;;8.60;4.00;;;3.60;8.60;;;;;;5036173;28;20455;-68
2024/01/22 07:53:27;;;;;;;7.67;3.90;;;3.60;8.40;;;;;;5031082;28;20454;-68
2024/01/22 07:55:54;;;;;;;7.40;4.17;;;3.60;8.40;;;;;;5031301;28;21004;-68
2024/01/22 07:58:20;;;;;;;7.43;3.73;;;3.60;8.40;;;;;;5031945;28;20577;-68
2024/01/22 08:00:47;;;;;;;9.03;4.27;;;3.70;8.10;;;;;;5043894;22;20503;-70
2024/01/22 08:03:14;;;;;;;5.80;3.27;;;3.70;7.90;;;;;;5026982;28;20538;-70
2024/01/22 08:05:41;;;;;;;6.50;3.60;;;3.80;7.80;;;;;;5023492;28;20467;-70
2024/01/22 08:08:10;;;;;;;7.50;3.80;;;3.80;7.70;;;;;;5026176;28;20486;-69
2024/01/22 08:10:37;;;;;;;7.33;3.53;;;3.80;7.50;;;;;;5029085;28;20462;-68
2024/01/22 08:13:05;;;;;;;8.90;3.60;;;3.80;7.50;;;;;;5030062;28;20481;-69
2024/01/22 08:15:32;;;;;;;8.50;3.70;;;3.90;7.50;;;;;;5030317;28;20481;-68
2024/01/22 08:17:59;;;;;;;8.40;3.30;;;3.90;7.40;;;;;;5032746;28;20479;-69
2024/01/22 08:20:26;;;;;;;6.67;3.37;;;3.90;7.10;;;;;;5030182;28;20550;-69
2024/01/22 08:22:52;;;;;;;8.63;3.97;;;4.00;7.00;;;;;;5030766;28;20457;-69
2024/01/22 08:25:27;;;;;;;6.87;3.60;;;4.00;6.90;;;;;;5030831;28;20481;-69
2024/01/22 08:27:54;;;;;;;6.80;3.20;;;4.00;6.80;;;;;;5029813;28;20523;-69
2024/01/22 08:30:21;;;;;;;6.30;3.30;;;4.10;6.60;;;;;;5029602;28;20459;-69
2024/01/22 08:32:48;;;;;;;6.10;3.60;;;4.10;6.40;;;;;;5032037;28;20485;-69
2024/01/22 08:35:16;;;;;;;5.90;3.20;;;4.20;6.30;;;;;;5028110;28;20459;-69
2024/01/22 08:37:45;;;;;;;6.60;3.60;;;4.20;6.70;;;;;;5027952;28;20991;-70
2024/01/22 08:40:12;;;;;;;5.90;3.30;;;4.20;6.30;;;;;;5030220;28;20554;-69
2024/01/22 08:42:40;;;;;;;6.57;3.60;;;4.30;6.30;;;;;;5029939;28;20451;-69
2024/01/22 08:45:08;;;;;;;5.77;3.10;;;4.30;6.20;;;;;;5007404;28;20451;-69
2024/01/22 08:47:34;;;;;;;5.73;2.90;;;4.40;5.90;;;;;;5029510;28;20566;-69
2024/01/22 08:50:01;;;;;;;5.50;2.90;;;4.40;6.00;;;;;;5029724;28;20467;-70
2024/01/22 08:52:28;;;;;;;9.17;4.30;;;4.50;5.60;;;;;;5026782;28;20841;-70
2024/01/22 08:54:55;;;;;;;8.00;3.50;;;4.50;5.50;;;;;;5037264;28;21071;-69
2024/01/22 08:57:22;;;;;;;5.30;3.10;;;4.60;5.60;;;;;;5030568;28;20507;-71
2024/01/22 08:59:50;;;;;;;5.77;3.40;;;4.60;5.50;;;;;;5029803;28;20459;-69
2024/01/22 09:02:17;;;;;;;5.90;3.37;;;4.70;5.50;;;;;;5029311;28;20546;-69
2024/01/22 09:04:43;;;;;;;6.50;3.47;;;4.70;5.50;;;;;;5027291;28;20948;-69
2024/01/22 09:07:10;;;;;;;7.90;3.43;;;4.70;5.40;;;;;;5027704;28;20487;-69
2024/01/22 09:09:37;;;;;;;5.80;2.83;;;4.80;5.50;;;;;;5029025;28;20455;-69
2024/01/22 09:12:04;;;;;;;8.00;4.23;;;4.80;5.20;;;;;;5029925;28;20482;-68
2024/01/22 09:14:31;;;;;;;5.83;3.43;;;4.90;5.20;;;;;;5029094;28;20459;-68
2024/01/22 09:16:59;;;;;;;5.47;2.70;;;4.90;5.30;;;;;;5029744;28;20482;-69
2024/01/22 09:19:27;;;;;;;5.33;2.50;;;4.90;5.10;;;;;;5027594;28;20455;-69
2024/01/22 09:21:54;;;;;;;6.03;2.93;;;5.00;5.00;;;;;;5027008;28;20509;-70
2024/01/22 09:24:21;;;;;;;6.80;3.70;;;5.00;5.10;;;;;;5027918;28;20471;-69
2024/01/22 09:26:47;;;;;;;7.10;3.00;;;5.00;4.90;;;;;;5028680;28;20864;-69
2024/01/22 09:29:14;;;;;;;7.30;2.70;;;5.10;5.00;;;;;;5029355;28;20455;-69
2024/01/22 09:31:41;;;;;;;6.83;3.60;;;5.10;4.80;;;;;;5027625;28;20975;-69
2024/01/22 09:34:10;;;;;;;8.83;2.67;;;5.10;4.80;;;;;;5028573;28;20466;-69
2024/01/22 09:36:37;;;;;;;5.83;2.50;;;5.20;5.10;;;;;;5027557;28;21062;-69
2024/01/22 09:39:05;;;;;;;5.53;2.47;;;5.30;4.50;;;;;;5029160;28;20459;-68
2024/01/22 09:41:32;;;;;;;5.90;2.40;;;5.30;4.60;;;;;;5028558;28;21014;-69
2024/01/22 09:43:59;;;;;;;5.70;2.60;;;5.40;4.40;;;;;;5028904;28;20462;-68
2024/01/22 09:46:27;;;;;;;7.23;2.67;;;5.50;4.40;;;;;;5028382;28;20473;-68
2024/01/22 09:48:54;;;;;;;9.60;4.13;;;5.60;4.40;;;;;;5024843;28;20467;-69
2024/01/22 09:51:22;;;;;;;4.87;2.10;;;5.70;4.30;;;;;;5030513;28;20517;-69
2024/01/22 09:53:50;;;;;;;6.53;2.70;;;5.80;4.10;;;;;;5028240;28;20483;-69
2024/01/22 09:56:19;;;;;;;6.40;2.40;;;5.90;4.30;;;;;;5023928;28;20461;-70
2024/01/22 09:58:48;;;;;;;5.80;2.40;;;6.10;4.00;;;;;;5027912;28;20455;-70
2024/01/22 10:01:16;;;;;;;4.90;2.23;;;6.20;3.80;;;;;;5027995;28;20463;-69
2024/01/22 10:03:45;;;;;;;5.07;2.33;;;6.20;3.60;;;;;;5030060;28;20451;-71
2024/01/22 10:06:14;;;;;;;7.47;2.83;;;6.30;3.50;;;;;;5030529;28;20467;-69
2024/01/22 10:08:42;;;;;;;4.93;2.30;;;6.40;3.10;;;;;;5027363;28;21007;-69
2024/01/22 10:11:10;;;;;;;7.40;2.67;;;6.50;3.30;;;;;;5029077;28;21410;-68
2024/01/22 10:13:50;;;;;;;8.00;2.40;;;6.60;2.80;;;;;;5024311;28;20491;-68
2024/01/22 10:16:17;;;;;;;5.07;2.60;;;6.70;2.90;;;;;;5026538;28;21651;-69
2024/01/22 10:18:57;;;;;;;5.40;2.53;;;6.90;2.70;;;;;;5028175;28;20467;-69
2024/01/22 10:21:24;;;;;;;6.00;3.10;;;7.00;2.40;;;;;;5029692;28;20458;-69
2024/01/22 10:23:59;;;;;;;9.17;2.37;;;7.00;2.10;;;;;;5031768;28;20935;-70
2024/01/22 10:26:26;;;;;;;8.70;3.60;;;7.00;1.80;;;;;;5034398;28;20455;-69
2024/01/22 10:28:53;;;;;;;9.07;5.00;;;7.00;1.60;;;;;;5049714;28;20449;-69
2024/01/22 10:31:20;;;;;;;13.47;6.73;;;7.00;1.70;;;;;;5044340;28;20455;-69
2024/01/22 10:33:48;;;;;;;18.87;8.23;;;6.90;1.80;;;;;;5027310;28;21350;-70
2024/01/22 10:36:16;;;;;;;8.67;4.80;;;6.90;1.90;;;;;;5027011;28;20502;-69
2024/01/22 10:38:44;;;;;;;6.83;3.30;;;6.90;2.10;;;;;;5026291;28;20466;-69
2024/01/22 10:41:18;;;;;;;7.80;3.17;;;7.00;2.00;;;;;;5027382;28;20481;-69
2024/01/22 10:43:45;;;;;;;5.73;2.97;;;7.00;2.20;;;;;;5028587;28;20450;-69
2024/01/22 10:46:13;;;;;;;6.63;2.87;;;7.00;1.80;;;;;;5027744;28;20474;-69
2024/01/22 10:48:41;;;;;;;6.60;2.53;;;7.10;2.20;;;;;;5025464;28;20473;-70
2024/01/22 10:51:09;;;;;;;6.83;3.40;;;7.10;2.20;;;;;;5025059;28;20562;-70
2024/01/22 10:53:37;;;;;;;6.40;3.07;;;7.10;2.90;;;;;;5029109;28;20486;-69
2024/01/22 10:56:11;;;;;;;6.27;3.40;;;7.20;2.40;;;;;;5030382;28;20509;-69
2024/01/22 10:58:43;;;;;;;7.07;2.97;;;7.30;2.40;;;;;;5028950;28;21176;-69
2024/01/22 11:01:15;;;;;;;7.10;3.30;;;7.40;2.20;;;;;;5032114;28;20505;-68
2024/01/22 11:03:48;;;;;;;6.30;2.93;;;7.50;2.20;;;;;;5028084;28;21018;-69
2024/01/22 11:06:18;;;;;;;5.73;3.33;;;7.80;2.50;;;;;;5025680;28;20470;-69
2024/01/22 11:08:49;;;;;;;8.10;3.50;;;8.10;1.80;;;;;;5025273;28;20482;-69
2024/01/22 11:11:19;;;;;;;6.37;3.43;;;8.40;1.60;;;;;;5027610;28;20836;-69
2024/01/22 11:13:51;;;;;;;7.03;3.70;;;8.70;1.20;;;;;;5026992;28;20486;-70
2024/01/22 11:16:18;;;;;;;6.20;3.13;;;9.10;1.00;;;;;;5030084;28;20632;-69
2024/01/22 11:18:56;;;;;;;5.63;3.00;;;9.40;1.00;;;;;;5027285;28;20455;-69
2024/01/22 11:21:24;;;;;;;6.53;3.43;;;9.60;1.00;;;;;;5011688;28;20510;-69
2024/01/22 11:24:12;;;;;;;7.30;3.20;;;9.60;1.00;;;;;;5027742;28;20521;-68
2024/01/22 11:26:43;;;;;;;7.63;3.33;;;9.60;1.00;;;;;;5029541;28;20987;-71
2024/01/22 11:29:14;;;;;;;6.77;3.70;;;9.60;1.00;;;;;;5025969;28;20454;-69
2024/01/22 11:31:41;;;;;;;8.63;3.53;;;9.50;1.00;;;;;;5026892;28;20550;-69
2024/01/22 11:34:08;;;;;;;5.70;3.07;;;9.40;1.00;;;;;;5025300;28;20470;-69
2024/01/22 11:36:56;;;;;;;8.37;3.23;;;9.30;1.00;;;;;;5030832;28;20490;-70
2024/01/22 11:39:46;;;;;;;7.23;3.37;;;9.20;1.00;;;;;;5026008;28;20480;-69
2024/01/22 11:42:28;;;;;;;8.17;3.50;;;9.10;1.00;;;;;;5030806;28;20459;-69
2024/01/22 11:45:00;;;;;;;6.80;3.13;;;9.00;1.00;;;;;;5030202;28;20454;-69
2024/01/22 11:47:28;;;;;;;9.60;2.90;;;8.90;1.00;;;;;;5030092;28;20509;-69
2024/01/22 11:50:02;;;;;;;6.40;3.33;;;8.80;1.20;;;;;;5026857;28;20880;-69
2024/01/22 11:52:29;;;;;;;6.83;3.27;;;8.70;1.30;;;;;;5030367;28;20489;-69
2024/01/22 11:54:57;;;;;;;6.23;2.67;;;8.60;1.80;;;;;;5029702;28;20463;-70
2024/01/22 11:57:26;;;;;;;6.53;2.83;;;8.70;2.60;;;;;;5031128;28;20481;-69
2024/01/22 12:00:09;;;;;;;6.60;3.03;;;8.60;2.30;;;;;;5030540;28;20490;-69
2024/01/22 12:02:36;;;;;;;8.37;3.90;;;8.50;2.60;;;;;;5028459;28;20482;-70
2024/01/22 12:05:06;;;;;;;9.23;3.37;;;8.40;3.00;;;;;;5029053;28;21011;-70
2024/01/22 12:07:34;;;;;;;7.10;3.30;;;8.50;3.20;;;;;;5029785;28;20478;-69
2024/01/22 12:10:01;;;;;;;6.63;2.90;;;8.40;3.30;;;;;;5030487;28;21069;-69
2024/01/22 12:12:28;;;;;;;5.80;3.23;;;8.40;3.50;;;;;;5035024;28;21044;-70
2024/01/22 12:14:56;;;;;;;7.37;2.97;;;8.40;3.70;;;;;;5029608;28;20542;-69
2024/01/22 12:17:25;;;;;;;6.40;3.00;;;8.50;3.90;;;;;;5032001;28;20747;-69
2024/01/22 12:19:54;;;;;;;6.00;2.97;;;8.50;4.10;;;;;;5031316;28;20455;-70
2024/01/22 12:22:22;;;;;;;5.03;2.73;;;8.50;4.30;;;;;;5026861;28;21002;-69
2024/01/22 12:25:02;;;;;;;6.27;3.00;;;8.50;4.90;;;;;;5028759;28;20454;-70
2024/01/22 12:27:29;;;;;;;5.20;2.73;;;8.50;4.50;;;;;;5028943;28;20544;-70
2024/01/22 12:30:00;;;;;;;4.77;2.40;;;8.50;4.60;;;;;;5028133;28;20800;-69
2024/01/22 12:32:29;;;;;;;5.80;2.90;;;8.60;4.80;;;;;;5029499;28;20529;-69
2024/01/22 12:34:56;;;;;;;6.13;3.03;;;8.60;5.20;;;;;;5035848;28;20574;-69
2024/01/22 12:37:25;;;;;;;5.10;2.43;;;8.60;5.40;;;;;;5031078;28;20483;-69
2024/01/22 12:40:14;;;;;;;5.20;2.40;;;8.60;5.80;;;;;;5029290;28;20542;-69
2024/01/22 12:42:42;;;;;;;6.27;2.97;;;8.60;6.10;;;;;;5024515;28;20460;-69
2024/01/22 12:45:12;;;;;;;5.93;2.70;;;8.60;6.00;;;;;;5029147;28;20831;-69
2024/01/22 12:47:41;;;;;;;8.07;2.87;;;8.60;6.30;;;;;;5030591;28;20874;-67
2024/01/22 12:50:09;;;;;;;5.90;3.23;;;8.60;5.90;;;;;;5033095;28;20463;-68
2024/01/22 12:52:36;;;;;;;5.87;2.87;;;8.60;5.90;;;;;;5034308;28;20462;-69
2024/01/22 12:55:03;;;;;;;5.20;2.37;;;8.50;6.00;;;;;;5026073;28;20563;-68
2024/01/22 12:57:29;;;;;;;6.20;3.20;;;8.50;6.00;;;;;;5013191;28;20805;-68
2024/01/22 12:59:56;;;;;;;7.47;3.00;;;8.50;6.30;;;;;;5027257;28;20462;-69
2024/01/22 13:02:23;;;;;;;5.83;2.60;;;8.50;6.40;;;;;;5029725;28;20471;-70
2024/01/22 13:04:51;;;;;;;5.40;2.40;;;8.60;6.30;;;;;;5030997;28;20470;-70